sensor_id;sensor_type;location;lat;lon;timestamp;temperature;humidity
15296;DHT22;7749;49.964;7.890;2023-03-05T00:01:30;6.20;99.90
15296;DHT22;7749;49.964;7.890;2023-03-05T00:04:01;6.20;99.90
15296;DHT22;7749;49.964;7.890;2023-03-05T00:06:30;6.20;99.90
15296;DHT22;7749;49.964;7.890;2023-03-05T00:08:58;6.20;99.90
15296;DHT22;7749;49.964;7.890;2023-03-05T00:11:26;6.20;99.90
15296;DHT22;7749;49.964;7.890;2023-03-05T00:13:56;6.20;99.90
15296;DHT22;7749;49.964;7.890;2023-03-05T00:16:24;6.20;99.90
15296;DHT22;7749;49.964;7.890;2023-03-05T00:18:53;6.20;99.90
15296;DHT22;7749;49.964;7.890;2023-03-05T00:23:55;6.20;99.90
15296;DHT22;7749;49.964;7.890;2023-03-05T00:26:28;6.20;99.90
15296;DHT22;7749;49.964;7.890;2023-03-05T00:28:56;6.20;99.90
15296;DHT22;7749;49.964;7.890;2023-03-05T00:31:25;6.20;99.90
15296;DHT22;7749;49.964;7.890;2023-03-05T00:33:54;6.30;99.90
15296;DHT22;7749;49.964;7.890;2023-03-05T00:36:21;6.20;99.90
15296;DHT22;7749;49.964;7.890;2023-03-05T00:38:49;6.30;99.90
15296;DHT22;7749;49.964;7.890;2023-03-05T00:41:17;6.20;99.90
15296;DHT22;7749;49.964;7.890;2023-03-05T00:43:45;6.20;99.90
15296;DHT22;7749;49.964;7.890;2023-03-05T00:46:25;6.20;99.90
15296;DHT22;7749;49.964;7.890;2023-03-05T00:48:54;6.30;99.90
15296;DHT22;7749;49.964;7.890;2023-03-05T00:51:24;6.20;99.90
15296;DHT22;7749;49.964;7.890;2023-03-05T00:53:52;6.20;99.90
15296;DHT22;7749;49.964;7.890;2023-03-05T00:56:20;6.20;99.90
15296;DHT22;7749;49.964;7.890;2023-03-05T00:58:48;6.20;99.90
15296;DHT22;7749;49.964;7.890;2023-03-05T01:01:15;6.10;99.90
15296;DHT22;7749;49.964;7.890;2023-03-05T01:03:45;6.10;99.90
15296;DHT22;7749;49.964;7.890;2023-03-05T01:06:13;6.10;99.90
15296;DHT22;7749;49.964;7.890;2023-03-05T01:08:44;6.20;99.90
15296;DHT22;7749;49.964;7.890;2023-03-05T01:11:15;6.10;99.90
15296;DHT22;7749;49.964;7.890;2023-03-05T01:13:42;6.10;99.90
15296;DHT22;7749;49.964;7.890;2023-03-05T01:16:10;6.10;99.90
15296;DHT22;7749;49.964;7.890;2023-03-05T01:18:38;6.10;99.90
15296;DHT22;7749;49.964;7.890;2023-03-05T01:21:05;6.10;99.90
15296;DHT22;7749;49.964;7.890;2023-03-05T01:23:33;6.10;99.90
15296;DHT22;7749;49.964;7.890;2023-03-05T01:26:04;6.20;99.90
15296;DHT22;7749;49.964;7.890;2023-03-05T01:28:31;6.10;99.90
15296;DHT22;7749;49.964;7.890;2023-03-05T01:30:59;6.10;99.90
15296;DHT22;7749;49.964;7.890;2023-03-05T01:33:30;6.10;99.90
15296;DHT22;7749;49.964;7.890;2023-03-05T01:35:57;6.10;99.90
15296;DHT22;7749;49.964;7.890;2023-03-05T01:38:25;6.10;99.90
15296;DHT22;7749;49.964;7.890;2023-03-05T01:40:52;6.10;99.90
15296;DHT22;7749;49.964;7.890;2023-03-05T01:43:24;6.10;99.90
15296;DHT22;7749;49.964;7.890;2023-03-05T01:48:38;6.10;99.90
15296;DHT22;7749;49.964;7.890;2023-03-05T01:51:06;6.10;99.90
15296;DHT22;7749;49.964;7.890;2023-03-05T01:53:34;6.00;99.90
15296;DHT22;7749;49.964;7.890;2023-03-05T01:56:05;6.10;99.90
15296;DHT22;7749;49.964;7.890;2023-03-05T01:58:33;6.00;99.90
15296;DHT22;7749;49.964;7.890;2023-03-05T02:01:00;6.00;99.90
15296;DHT22;7749;49.964;7.890;2023-03-05T02:03:28;6.10;99.90
15296;DHT22;7749;49.964;7.890;2023-03-05T02:05:55;6.10;99.90
15296;DHT22;7749;49.964;7.890;2023-03-05T02:08:23;6.10;99.90
15296;DHT22;7749;49.964;7.890;2023-03-05T02:10:51;6.10;99.90
15296;DHT22;7749;49.964;7.890;2023-03-05T02:13:20;6.10;99.90
15296;DHT22;7749;49.964;7.890;2023-03-05T02:15:49;6.10;99.90
15296;DHT22;7749;49.964;7.890;2023-03-05T02:18:17;6.00;99.90
15296;DHT22;7749;49.964;7.890;2023-03-05T02:23:25;6.00;99.90
15296;DHT22;7749;49.964;7.890;2023-03-05T02:25:53;6.00;99.90
15296;DHT22;7749;49.964;7.890;2023-03-05T02:28:25;6.10;99.90
15296;DHT22;7749;49.964;7.890;2023-03-05T02:30:53;5.90;99.90
15296;DHT22;7749;49.964;7.890;2023-03-05T02:33:20;5.90;99.90
15296;DHT22;7749;49.964;7.890;2023-03-05T02:35:50;5.90;99.90
15296;DHT22;7749;49.964;7.890;2023-03-05T02:38:18;5.90;99.90
15296;DHT22;7749;49.964;7.890;2023-03-05T02:40:45;5.80;99.90
15296;DHT22;7749;49.964;7.890;2023-03-05T02:43:13;5.90;99.90
15296;DHT22;7749;49.964;7.890;2023-03-05T02:45:40;5.90;99.90
15296;DHT22;7749;49.964;7.890;2023-03-05T02:48:08;6.00;99.90
15296;DHT22;7749;49.964;7.890;2023-03-05T02:50:35;5.90;99.90
15296;DHT22;7749;49.964;7.890;2023-03-05T02:53:03;6.00;99.90
15296;DHT22;7749;49.964;7.890;2023-03-05T02:55:30;6.00;99.90
15296;DHT22;7749;49.964;7.890;2023-03-05T02:57:58;5.90;99.90
15296;DHT22;7749;49.964;7.890;2023-03-05T03:00:25;5.90;99.90
15296;DHT22;7749;49.964;7.890;2023-03-05T03:02:53;5.90;99.90
15296;DHT22;7749;49.964;7.890;2023-03-05T03:05:20;5.90;99.90
15296;DHT22;7749;49.964;7.890;2023-03-05T03:07:48;5.90;99.90
15296;DHT22;7749;49.964;7.890;2023-03-05T03:10:16;5.90;99.90
15296;DHT22;7749;49.964;7.890;2023-03-05T03:12:46;5.80;99.90
15296;DHT22;7749;49.964;7.890;2023-03-05T03:15:18;5.80;99.90
15296;DHT22;7749;49.964;7.890;2023-03-05T03:17:46;5.80;99.90
15296;DHT22;7749;49.964;7.890;2023-03-05T03:20:15;5.80;99.90
15296;DHT22;7749;49.964;7.890;2023-03-05T03:22:44;5.80;99.90
15296;DHT22;7749;49.964;7.890;2023-03-05T03:25:18;5.70;99.90
15296;DHT22;7749;49.964;7.890;2023-03-05T03:27:48;5.70;99.90
15296;DHT22;7749;49.964;7.890;2023-03-05T03:30:16;5.70;99.90
15296;DHT22;7749;49.964;7.890;2023-03-05T03:32:44;5.70;99.90
15296;DHT22;7749;49.964;7.890;2023-03-05T03:35:12;5.70;99.90
15296;DHT22;7749;49.964;7.890;2023-03-05T03:37:40;5.70;99.90
15296;DHT22;7749;49.964;7.890;2023-03-05T03:40:08;5.70;99.90
15296;DHT22;7749;49.964;7.890;2023-03-05T03:42:36;5.70;99.90
15296;DHT22;7749;49.964;7.890;2023-03-05T03:45:04;5.70;99.90
15296;DHT22;7749;49.964;7.890;2023-03-05T03:47:32;5.70;99.90
15296;DHT22;7749;49.964;7.890;2023-03-05T03:50:01;5.70;99.90
15296;DHT22;7749;49.964;7.890;2023-03-05T03:52:29;5.70;99.90
15296;DHT22;7749;49.964;7.890;2023-03-05T03:54:56;5.70;99.90
15296;DHT22;7749;49.964;7.890;2023-03-05T03:57:29;5.60;99.90
15296;DHT22;7749;49.964;7.890;2023-03-05T03:59:57;5.60;99.90
15296;DHT22;7749;49.964;7.890;2023-03-05T04:02:25;5.60;99.90
15296;DHT22;7749;49.964;7.890;2023-03-05T04:04:55;5.60;99.90
15296;DHT22;7749;49.964;7.890;2023-03-05T04:07:24;5.60;99.90
15296;DHT22;7749;49.964;7.890;2023-03-05T04:09:53;5.60;99.90
15296;DHT22;7749;49.964;7.890;2023-03-05T04:12:20;5.60;99.90
15296;DHT22;7749;49.964;7.890;2023-03-05T04:14:48;5.60;99.90
15296;DHT22;7749;49.964;7.890;2023-03-05T04:17:16;5.60;99.90
15296;DHT22;7749;49.964;7.890;2023-03-05T04:19:44;5.60;99.90
15296;DHT22;7749;49.964;7.890;2023-03-05T04:22:16;5.50;99.90
15296;DHT22;7749;49.964;7.890;2023-03-05T04:24:47;5.60;99.90
15296;DHT22;7749;49.964;7.890;2023-03-05T04:27:14;5.60;99.90
15296;DHT22;7749;49.964;7.890;2023-03-05T04:29:42;5.60;99.90
15296;DHT22;7749;49.964;7.890;2023-03-05T04:32:09;5.60;99.90
15296;DHT22;7749;49.964;7.890;2023-03-05T04:34:37;5.60;99.90
15296;DHT22;7749;49.964;7.890;2023-03-05T04:37:05;5.50;99.90
15296;DHT22;7749;49.964;7.890;2023-03-05T04:39:35;5.60;99.90
15296;DHT22;7749;49.964;7.890;2023-03-05T04:42:03;5.50;99.90
15296;DHT22;7749;49.964;7.890;2023-03-05T04:44:31;5.50;99.90
15296;DHT22;7749;49.964;7.890;2023-03-05T04:46:58;5.40;99.90
15296;DHT22;7749;49.964;7.890;2023-03-05T04:49:29;5.50;99.90
15296;DHT22;7749;49.964;7.890;2023-03-05T04:51:57;5.50;99.90
15296;DHT22;7749;49.964;7.890;2023-03-05T04:54:25;5.60;99.90
15296;DHT22;7749;49.964;7.890;2023-03-05T04:56:52;5.50;99.90
15296;DHT22;7749;49.964;7.890;2023-03-05T04:59:20;5.50;99.90
15296;DHT22;7749;49.964;7.890;2023-03-05T05:01:48;5.50;99.90
15296;DHT22;7749;49.964;7.890;2023-03-05T05:04:15;5.50;99.90
15296;DHT22;7749;49.964;7.890;2023-03-05T05:06:43;5.50;99.90
15296;DHT22;7749;49.964;7.890;2023-03-05T05:09:13;5.50;99.90
15296;DHT22;7749;49.964;7.890;2023-03-05T05:11:40;5.50;99.90
15296;DHT22;7749;49.964;7.890;2023-03-05T05:14:08;5.50;99.90
15296;DHT22;7749;49.964;7.890;2023-03-05T05:16:36;5.40;99.90
15296;DHT22;7749;49.964;7.890;2023-03-05T05:19:04;5.40;99.90
15296;DHT22;7749;49.964;7.890;2023-03-05T05:21:31;5.40;99.90
15296;DHT22;7749;49.964;7.890;2023-03-05T05:24:01;5.50;99.90
15296;DHT22;7749;49.964;7.890;2023-03-05T05:26:28;5.50;99.90
15296;DHT22;7749;49.964;7.890;2023-03-05T05:28:56;5.50;99.90
15296;DHT22;7749;49.964;7.890;2023-03-05T05:31:24;5.50;99.90
15296;DHT22;7749;49.964;7.890;2023-03-05T05:33:54;5.50;99.90
15296;DHT22;7749;49.964;7.890;2023-03-05T05:36:22;5.40;99.90
15296;DHT22;7749;49.964;7.890;2023-03-05T05:38:50;5.40;99.90
15296;DHT22;7749;49.964;7.890;2023-03-05T05:41:18;5.40;99.90
15296;DHT22;7749;49.964;7.890;2023-03-05T05:43:46;5.30;99.90
15296;DHT22;7749;49.964;7.890;2023-03-05T05:46:18;5.40;99.90
15296;DHT22;7749;49.964;7.890;2023-03-05T05:48:46;5.40;99.90
15296;DHT22;7749;49.964;7.890;2023-03-05T05:51:22;5.40;99.90
15296;DHT22;7749;49.964;7.890;2023-03-05T05:53:50;5.40;99.90
15296;DHT22;7749;49.964;7.890;2023-03-05T05:56:18;5.30;99.90
15296;DHT22;7749;49.964;7.890;2023-03-05T05:58:47;5.30;99.90
15296;DHT22;7749;49.964;7.890;2023-03-05T06:01:28;5.40;99.90
15296;DHT22;7749;49.964;7.890;2023-03-05T06:03:56;5.30;99.90
15296;DHT22;7749;49.964;7.890;2023-03-05T06:06:27;5.30;99.90
15296;DHT22;7749;49.964;7.890;2023-03-05T06:08:56;5.30;99.90
15296;DHT22;7749;49.964;7.890;2023-03-05T06:11:26;5.20;99.90
15296;DHT22;7749;49.964;7.890;2023-03-05T06:13:54;5.30;99.90
15296;DHT22;7749;49.964;7.890;2023-03-05T06:16:22;5.30;99.90
15296;DHT22;7749;49.964;7.890;2023-03-05T06:18:51;5.20;99.90
15296;DHT22;7749;49.964;7.890;2023-03-05T06:21:22;5.30;99.90
15296;DHT22;7749;49.964;7.890;2023-03-05T06:23:50;5.20;99.90
15296;DHT22;7749;49.964;7.890;2023-03-05T06:26:20;5.20;99.90
15296;DHT22;7749;49.964;7.890;2023-03-05T06:28:48;5.20;99.90
15296;DHT22;7749;49.964;7.890;2023-03-05T06:31:18;5.30;99.90
15296;DHT22;7749;49.964;7.890;2023-03-05T06:33:48;5.20;99.90
15296;DHT22;7749;49.964;7.890;2023-03-05T06:36:18;5.30;99.90
15296;DHT22;7749;49.964;7.890;2023-03-05T06:38:46;5.20;99.90
15296;DHT22;7749;49.964;7.890;2023-03-05T06:41:18;5.20;99.90
15296;DHT22;7749;49.964;7.890;2023-03-05T06:43:47;5.20;99.90
15296;DHT22;7749;49.964;7.890;2023-03-05T06:46:23;5.20;99.90
15296;DHT22;7749;49.964;7.890;2023-03-05T06:48:51;5.30;99.90
15296;DHT22;7749;49.964;7.890;2023-03-05T06:53:53;5.30;99.90
15296;DHT22;7749;49.964;7.890;2023-03-05T06:56:22;5.20;99.90
15296;DHT22;7749;49.964;7.890;2023-03-05T06:58:50;5.20;99.90
15296;DHT22;7749;49.964;7.890;2023-03-05T07:01:19;5.30;99.90
15296;DHT22;7749;49.964;7.890;2023-03-05T07:03:48;5.30;99.90
15296;DHT22;7749;49.964;7.890;2023-03-05T07:06:20;5.40;99.90
15296;DHT22;7749;49.964;7.890;2023-03-05T07:08:48;5.40;99.90
15296;DHT22;7749;49.964;7.890;2023-03-05T07:11:18;5.40;99.90
15296;DHT22;7749;49.964;7.890;2023-03-05T07:13:47;5.40;99.90
15296;DHT22;7749;49.964;7.890;2023-03-05T07:16:26;5.40;99.90
15296;DHT22;7749;49.964;7.890;2023-03-05T07:18:55;5.50;99.90
15296;DHT22;7749;49.964;7.890;2023-03-05T07:21:26;5.50;99.90
15296;DHT22;7749;49.964;7.890;2023-03-05T07:23:55;5.60;99.90
15296;DHT22;7749;49.964;7.890;2023-03-05T07:26:24;5.60;99.90
15296;DHT22;7749;49.964;7.890;2023-03-05T07:28:52;5.60;99.90
15296;DHT22;7749;49.964;7.890;2023-03-05T07:31:22;5.60;99.90
15296;DHT22;7749;49.964;7.890;2023-03-05T07:33:53;5.70;99.90
15296;DHT22;7749;49.964;7.890;2023-03-05T07:36:21;5.70;99.90
15296;DHT22;7749;49.964;7.890;2023-03-05T07:38:48;5.80;99.90
15296;DHT22;7749;49.964;7.890;2023-03-05T07:41:17;5.80;99.90
15296;DHT22;7749;49.964;7.890;2023-03-05T07:43:51;5.70;99.90
15296;DHT22;7749;49.964;7.890;2023-03-05T07:46:22;5.80;99.90
15296;DHT22;7749;49.964;7.890;2023-03-05T07:48:50;5.80;99.90
15296;DHT22;7749;49.964;7.890;2023-03-05T07:51:19;5.80;99.90
15296;DHT22;7749;49.964;7.890;2023-03-05T07:53:49;5.90;99.90
15296;DHT22;7749;49.964;7.890;2023-03-05T07:56:36;6.00;99.90
15296;DHT22;7749;49.964;7.890;2023-03-05T07:59:08;6.10;99.90
15296;DHT22;7749;49.964;7.890;2023-03-05T08:01:37;6.30;99.90
15296;DHT22;7749;49.964;7.890;2023-03-05T08:04:09;6.30;99.90
15296;DHT22;7749;49.964;7.890;2023-03-05T08:06:41;6.40;99.90
15296;DHT22;7749;49.964;7.890;2023-03-05T08:09:10;6.50;99.90
15296;DHT22;7749;49.964;7.890;2023-03-05T08:11:40;6.40;99.90
15296;DHT22;7749;49.964;7.890;2023-03-05T08:14:13;6.50;99.90
15296;DHT22;7749;49.964;7.890;2023-03-05T08:16:41;6.60;99.90
15296;DHT22;7749;49.964;7.890;2023-03-05T08:19:09;6.60;99.90
15296;DHT22;7749;49.964;7.890;2023-03-05T08:21:37;6.80;99.90
15296;DHT22;7749;49.964;7.890;2023-03-05T08:24:07;6.80;99.90
15296;DHT22;7749;49.964;7.890;2023-03-05T08:26:36;6.80;99.90
15296;DHT22;7749;49.964;7.890;2023-03-05T08:29:08;6.90;99.90
15296;DHT22;7749;49.964;7.890;2023-03-05T08:31:36;7.10;99.90
15296;DHT22;7749;49.964;7.890;2023-03-05T08:34:06;6.90;99.90
15296;DHT22;7749;49.964;7.890;2023-03-05T08:36:34;6.90;99.90
15296;DHT22;7749;49.964;7.890;2023-03-05T08:39:05;7.00;99.90
15296;DHT22;7749;49.964;7.890;2023-03-05T08:41:34;7.10;99.90
15296;DHT22;7749;49.964;7.890;2023-03-05T08:44:05;7.10;99.90
15296;DHT22;7749;49.964;7.890;2023-03-05T08:46:33;7.10;99.90
15296;DHT22;7749;49.964;7.890;2023-03-05T08:49:01;6.90;99.90
15296;DHT22;7749;49.964;7.890;2023-03-05T08:51:29;6.70;99.90
15296;DHT22;7749;49.964;7.890;2023-03-05T08:53:57;6.60;99.90
15296;DHT22;7749;49.964;7.890;2023-03-05T08:56:26;6.60;99.90
15296;DHT22;7749;49.964;7.890;2023-03-05T08:58:57;6.60;99.90
15296;DHT22;7749;49.964;7.890;2023-03-05T09:01:25;6.50;99.90
15296;DHT22;7749;49.964;7.890;2023-03-05T09:03:58;6.40;99.90
15296;DHT22;7749;49.964;7.890;2023-03-05T09:06:26;6.50;99.90
15296;DHT22;7749;49.964;7.890;2023-03-05T09:08:54;6.50;99.90
15296;DHT22;7749;49.964;7.890;2023-03-05T09:11:22;6.40;99.90
15296;DHT22;7749;49.964;7.890;2023-03-05T09:13:53;6.50;99.90
15296;DHT22;7749;49.964;7.890;2023-03-05T09:16:20;6.50;99.90
15296;DHT22;7749;49.964;7.890;2023-03-05T09:18:53;6.60;99.90
15296;DHT22;7749;49.964;7.890;2023-03-05T09:21:21;6.70;99.90
15296;DHT22;7749;49.964;7.890;2023-03-05T09:23:48;6.80;99.90
15296;DHT22;7749;49.964;7.890;2023-03-05T09:26:19;6.90;99.90
15296;DHT22;7749;49.964;7.890;2023-03-05T09:28:47;7.10;99.90
15296;DHT22;7749;49.964;7.890;2023-03-05T09:31:15;7.00;99.90
15296;DHT22;7749;49.964;7.890;2023-03-05T09:33:44;6.90;99.90
15296;DHT22;7749;49.964;7.890;2023-03-05T09:36:26;6.80;99.90
15296;DHT22;7749;49.964;7.890;2023-03-05T09:38:55;6.90;99.90
15296;DHT22;7749;49.964;7.890;2023-03-05T09:52:05;6.70;99.90
15296;DHT22;7749;49.964;7.890;2023-03-05T09:54:44;6.30;99.90
15296;DHT22;7749;49.964;7.890;2023-03-05T09:57:20;6.30;99.90
15296;DHT22;7749;49.964;7.890;2023-03-05T10:00:05;6.30;99.90
15296;DHT22;7749;49.964;7.890;2023-03-05T10:02:45;6.40;99.90
15296;DHT22;7749;49.964;7.890;2023-03-05T10:05:19;6.50;99.90
15296;DHT22;7749;49.964;7.890;2023-03-05T10:07:55;6.30;99.90
15296;DHT22;7749;49.964;7.890;2023-03-05T10:10:41;6.30;99.90
15296;DHT22;7749;49.964;7.890;2023-03-05T10:21:27;5.90;99.90
15296;DHT22;7749;49.964;7.890;2023-03-05T10:24:34;5.90;99.90
15296;DHT22;7749;49.964;7.890;2023-03-05T10:38:27;6.60;99.90
15296;DHT22;7749;49.964;7.890;2023-03-05T10:41:06;6.60;99.90
15296;DHT22;7749;49.964;7.890;2023-03-05T10:43:57;6.50;99.90
15296;DHT22;7749;49.964;7.890;2023-03-05T10:46:32;6.30;99.90
15296;DHT22;7749;49.964;7.890;2023-03-05T10:49:10;6.20;99.90
15296;DHT22;7749;49.964;7.890;2023-03-05T10:54:55;6.40;99.90
15296;DHT22;7749;49.964;7.890;2023-03-05T10:57:24;6.30;99.90
15296;DHT22;7749;49.964;7.890;2023-03-05T11:02:33;6.50;99.90
15296;DHT22;7749;49.964;7.890;2023-03-05T11:05:01;6.60;99.90
15296;DHT22;7749;49.964;7.890;2023-03-05T11:07:33;6.70;99.90
15296;DHT22;7749;49.964;7.890;2023-03-05T11:10:08;6.80;99.90
15296;DHT22;7749;49.964;7.890;2023-03-05T11:12:41;6.90;99.90
15296;DHT22;7749;49.964;7.890;2023-03-05T11:17:44;7.00;99.90
15296;DHT22;7749;49.964;7.890;2023-03-05T11:23:36;7.10;99.90
15296;DHT22;7749;49.964;7.890;2023-03-05T11:29:00;7.00;99.90
15296;DHT22;7749;49.964;7.890;2023-03-05T11:31:32;6.90;99.90
15296;DHT22;7749;49.964;7.890;2023-03-05T11:34:01;7.00;99.90
15296;DHT22;7749;49.964;7.890;2023-03-05T11:36:29;7.00;99.90
15296;DHT22;7749;49.964;7.890;2023-03-05T11:44:29;7.10;99.90
15296;DHT22;7749;49.964;7.890;2023-03-05T11:49:53;7.40;99.90
15296;DHT22;7749;49.964;7.890;2023-03-05T11:52:44;7.40;99.90
15296;DHT22;7749;49.964;7.890;2023-03-05T11:55:53;7.50;99.90
15296;DHT22;7749;49.964;7.890;2023-03-05T12:01:16;7.10;99.90
15296;DHT22;7749;49.964;7.890;2023-03-05T12:03:44;7.00;99.90
15296;DHT22;7749;49.964;7.890;2023-03-05T12:08:52;7.20;99.90
15296;DHT22;7749;49.964;7.890;2023-03-05T12:11:31;7.30;99.90
15296;DHT22;7749;49.964;7.890;2023-03-05T12:19:55;7.30;99.90
15296;DHT22;7749;49.964;7.890;2023-03-05T12:22:33;7.30;99.90
15296;DHT22;7749;49.964;7.890;2023-03-05T12:25:31;7.30;99.90
15296;DHT22;7749;49.964;7.890;2023-03-05T12:27:59;7.50;99.90
15296;DHT22;7749;49.964;7.890;2023-03-05T12:33:02;7.10;99.90
15296;DHT22;7749;49.964;7.890;2023-03-05T12:35:31;7.20;99.90
15296;DHT22;7749;49.964;7.890;2023-03-05T12:38:00;7.70;99.90
15296;DHT22;7749;49.964;7.890;2023-03-05T12:40:37;7.90;99.90
15296;DHT22;7749;49.964;7.890;2023-03-05T12:43:28;8.20;99.90
15296;DHT22;7749;49.964;7.890;2023-03-05T12:48:50;8.60;99.90
15296;DHT22;7749;49.964;7.890;2023-03-05T12:51:32;8.80;99.90
15296;DHT22;7749;49.964;7.890;2023-03-05T12:54:23;8.90;99.90
15296;DHT22;7749;49.964;7.890;2023-03-05T12:56:55;8.90;99.90
15296;DHT22;7749;49.964;7.890;2023-03-05T12:59:28;8.80;99.90
15296;DHT22;7749;49.964;7.890;2023-03-05T13:02:02;8.90;99.90
15296;DHT22;7749;49.964;7.890;2023-03-05T13:04:33;8.90;99.90
15296;DHT22;7749;49.964;7.890;2023-03-05T13:07:14;8.70;99.90
15296;DHT22;7749;49.964;7.890;2023-03-05T13:10:01;8.90;99.90
15296;DHT22;7749;49.964;7.890;2023-03-05T13:12:29;9.10;99.90
15296;DHT22;7749;49.964;7.890;2023-03-05T13:15:03;9.30;99.90
15296;DHT22;7749;49.964;7.890;2023-03-05T13:20:40;9.20;99.90
15296;DHT22;7749;49.964;7.890;2023-03-05T13:23:26;9.10;99.90
15296;DHT22;7749;49.964;7.890;2023-03-05T13:26:25;9.20;99.90
15296;DHT22;7749;49.964;7.890;2023-03-05T13:32:01;9.30;99.90
15296;DHT22;7749;49.964;7.890;2023-03-05T13:34:35;9.20;99.90
15296;DHT22;7749;49.964;7.890;2023-03-05T13:37:19;9.00;99.90
15296;DHT22;7749;49.964;7.890;2023-03-05T13:39:53;8.90;99.90
15296;DHT22;7749;49.964;7.890;2023-03-05T13:42:29;8.70;99.90
15296;DHT22;7749;49.964;7.890;2023-03-05T13:45:20;8.70;99.90
15296;DHT22;7749;49.964;7.890;2023-03-05T13:48:06;8.70;99.90
15296;DHT22;7749;49.964;7.890;2023-03-05T13:50:39;8.60;99.90
15296;DHT22;7749;49.964;7.890;2023-03-05T13:53:33;8.60;99.90
15296;DHT22;7749;49.964;7.890;2023-03-05T13:56:06;8.40;99.90
15296;DHT22;7749;49.964;7.890;2023-03-05T14:01:30;8.30;99.90
15296;DHT22;7749;49.964;7.890;2023-03-05T14:04:18;8.20;99.90
15296;DHT22;7749;49.964;7.890;2023-03-05T14:06:56;8.10;99.90
15296;DHT22;7749;49.964;7.890;2023-03-05T14:09:44;8.00;99.90
15296;DHT22;7749;49.964;7.890;2023-03-05T14:12:27;8.00;99.90
15296;DHT22;7749;49.964;7.890;2023-03-05T14:15:00;8.00;99.90
15296;DHT22;7749;49.964;7.890;2023-03-05T14:17:42;7.90;99.90
15296;DHT22;7749;49.964;7.890;2023-03-05T14:22:40;8.00;99.90
15296;DHT22;7749;49.964;7.890;2023-03-05T14:27:54;7.90;99.90
15296;DHT22;7749;49.964;7.890;2023-03-05T14:30:23;7.80;99.90
15296;DHT22;7749;49.964;7.890;2023-03-05T14:32:57;7.70;99.90
15296;DHT22;7749;49.964;7.890;2023-03-05T14:35:27;7.80;99.90
15296;DHT22;7749;49.964;7.890;2023-03-05T14:37:57;7.80;99.90
15296;DHT22;7749;49.964;7.890;2023-03-05T14:40:27;7.80;99.90
15296;DHT22;7749;49.964;7.890;2023-03-05T14:43:05;7.70;99.90
15296;DHT22;7749;49.964;7.890;2023-03-05T14:45:40;7.70;99.90
15296;DHT22;7749;49.964;7.890;2023-03-05T14:48:13;7.70;99.90
15296;DHT22;7749;49.964;7.890;2023-03-05T14:50:47;7.70;99.90
15296;DHT22;7749;49.964;7.890;2023-03-05T14:53:24;7.70;99.90
15296;DHT22;7749;49.964;7.890;2023-03-05T14:55:55;7.70;99.90
15296;DHT22;7749;49.964;7.890;2023-03-05T14:58:25;7.60;99.90
15296;DHT22;7749;49.964;7.890;2023-03-05T15:00:54;7.50;99.90
15296;DHT22;7749;49.964;7.890;2023-03-05T15:03:24;7.40;99.90
15296;DHT22;7749;49.964;7.890;2023-03-05T15:05:54;7.40;99.90
15296;DHT22;7749;49.964;7.890;2023-03-05T15:08:25;7.40;99.90
15296;DHT22;7749;49.964;7.890;2023-03-05T15:10:54;7.20;99.90
15296;DHT22;7749;49.964;7.890;2023-03-05T15:13:21;7.30;99.90
15296;DHT22;7749;49.964;7.890;2023-03-05T15:15:50;7.20;99.90
15296;DHT22;7749;49.964;7.890;2023-03-05T15:18:20;7.00;99.90
15296;DHT22;7749;49.964;7.890;2023-03-05T15:20:49;7.00;99.90
15296;DHT22;7749;49.964;7.890;2023-03-05T15:23:19;7.00;99.90
15296;DHT22;7749;49.964;7.890;2023-03-05T15:25:47;7.00;99.90
15296;DHT22;7749;49.964;7.890;2023-03-05T15:28:14;6.90;99.90
15296;DHT22;7749;49.964;7.890;2023-03-05T15:30:45;6.80;99.90
15296;DHT22;7749;49.964;7.890;2023-03-05T15:33:14;6.80;99.90
15296;DHT22;7749;49.964;7.890;2023-03-05T15:35:43;6.80;99.90
15296;DHT22;7749;49.964;7.890;2023-03-05T15:38:10;6.80;99.90
15296;DHT22;7749;49.964;7.890;2023-03-05T15:40:38;6.80;99.90
15296;DHT22;7749;49.964;7.890;2023-03-05T15:43:06;6.80;99.90
15296;DHT22;7749;49.964;7.890;2023-03-05T15:45:43;6.80;99.90
15296;DHT22;7749;49.964;7.890;2023-03-05T15:48:11;6.80;99.90
15296;DHT22;7749;49.964;7.890;2023-03-05T15:50:40;6.80;99.90
15296;DHT22;7749;49.964;7.890;2023-03-05T15:53:12;6.90;99.90
15296;DHT22;7749;49.964;7.890;2023-03-05T15:55:43;6.90;99.90
15296;DHT22;7749;49.964;7.890;2023-03-05T15:58:13;6.90;99.90
15296;DHT22;7749;49.964;7.890;2023-03-05T16:00:42;6.90;99.90
15296;DHT22;7749;49.964;7.890;2023-03-05T16:03:10;7.10;99.90
15296;DHT22;7749;49.964;7.890;2023-03-05T16:05:38;6.80;99.90
15296;DHT22;7749;49.964;7.890;2023-03-05T16:08:07;6.80;99.90
15296;DHT22;7749;49.964;7.890;2023-03-05T16:10:35;6.80;99.90
15296;DHT22;7749;49.964;7.890;2023-03-05T16:13:12;6.80;99.90
15296;DHT22;7749;49.964;7.890;2023-03-05T16:15:42;6.80;99.90
15296;DHT22;7749;49.964;7.890;2023-03-05T16:18:20;6.70;99.90
15296;DHT22;7749;49.964;7.890;2023-03-05T16:20:48;6.70;99.90
15296;DHT22;7749;49.964;7.890;2023-03-05T16:23:15;6.70;99.90
15296;DHT22;7749;49.964;7.890;2023-03-05T16:25:43;6.70;99.90
15296;DHT22;7749;49.964;7.890;2023-03-05T16:28:11;6.80;99.90
15296;DHT22;7749;49.964;7.890;2023-03-05T16:30:40;6.80;99.90
15296;DHT22;7749;49.964;7.890;2023-03-05T16:33:08;6.80;99.90
15296;DHT22;7749;49.964;7.890;2023-03-05T16:35:36;6.80;99.90
15296;DHT22;7749;49.964;7.890;2023-03-05T16:38:03;6.80;99.90
15296;DHT22;7749;49.964;7.890;2023-03-05T16:40:36;6.80;99.90
15296;DHT22;7749;49.964;7.890;2023-03-05T16:43:24;6.80;99.90
15296;DHT22;7749;49.964;7.890;2023-03-05T16:45:51;6.80;99.90
15296;DHT22;7749;49.964;7.890;2023-03-05T16:48:19;6.70;99.90
15296;DHT22;7749;49.964;7.890;2023-03-05T16:50:59;6.70;99.90
15296;DHT22;7749;49.964;7.890;2023-03-05T16:53:30;6.60;99.90
15296;DHT22;7749;49.964;7.890;2023-03-05T16:56:01;6.60;99.90
15296;DHT22;7749;49.964;7.890;2023-03-05T16:58:31;6.60;99.90
15296;DHT22;7749;49.964;7.890;2023-03-05T17:01:00;6.50;99.90
15296;DHT22;7749;49.964;7.890;2023-03-05T17:03:28;6.50;99.90
15296;DHT22;7749;49.964;7.890;2023-03-05T17:05:55;6.50;99.90
15296;DHT22;7749;49.964;7.890;2023-03-05T17:08:23;6.50;99.90
15296;DHT22;7749;49.964;7.890;2023-03-05T17:10:51;6.50;99.90
15296;DHT22;7749;49.964;7.890;2023-03-05T17:13:19;6.40;99.90
15296;DHT22;7749;49.964;7.890;2023-03-05T17:15:46;6.40;99.90
15296;DHT22;7749;49.964;7.890;2023-03-05T17:18:14;6.30;99.90
15296;DHT22;7749;49.964;7.890;2023-03-05T17:20:42;6.50;99.90
15296;DHT22;7749;49.964;7.890;2023-03-05T17:30:37;6.30;99.90
15296;DHT22;7749;49.964;7.890;2023-03-05T17:33:13;6.30;99.90
15296;DHT22;7749;49.964;7.890;2023-03-05T17:35:44;6.30;99.90
15296;DHT22;7749;49.964;7.890;2023-03-05T17:38:14;6.30;99.90
15296;DHT22;7749;49.964;7.890;2023-03-05T17:40:44;6.30;99.90
15296;DHT22;7749;49.964;7.890;2023-03-05T17:43:12;6.30;99.90
15296;DHT22;7749;49.964;7.890;2023-03-05T17:45:41;6.30;99.90
15296;DHT22;7749;49.964;7.890;2023-03-05T17:48:12;6.20;99.90
15296;DHT22;7749;49.964;7.890;2023-03-05T17:50:40;6.20;99.90
15296;DHT22;7749;49.964;7.890;2023-03-05T17:53:08;6.10;99.90
15296;DHT22;7749;49.964;7.890;2023-03-05T17:55:38;6.20;99.90
15296;DHT22;7749;49.964;7.890;2023-03-05T17:58:06;6.10;99.90
15296;DHT22;7749;49.964;7.890;2023-03-05T18:00:35;6.10;99.90
15296;DHT22;7749;49.964;7.890;2023-03-05T18:03:03;6.10;99.90
15296;DHT22;7749;49.964;7.890;2023-03-05T18:05:31;6.10;99.90
15296;DHT22;7749;49.964;7.890;2023-03-05T18:07:59;6.10;99.90